createdAt,value
2019-02-05T00:02:13.617Z,6.83
2019-02-05T00:07:20.090Z,7.00
2019-02-05T00:12:26.711Z,7.37
2019-02-05T00:17:33.020Z,7.47
2019-02-05T00:22:39.332Z,7.12
2019-02-05T00:27:45.619Z,6.90
2019-02-05T00:32:51.931Z,7.30
2019-02-05T00:37:58.224Z,10.60
2019-02-05T00:43:05.819Z,9.28
2019-02-05T00:48:12.181Z,7.43
2019-02-05T00:53:18.501Z,8.13
2019-02-05T00:58:25.063Z,8.60
2019-02-05T01:03:31.878Z,7.17
2019-02-05T01:08:38.589Z,8.80
2019-02-05T01:13:44.873Z,8.30
2019-02-05T01:18:51.172Z,8.17
2019-02-05T01:23:57.385Z,8.80
2019-02-05T01:29:03.838Z,7.95
2019-02-05T01:34:10.265Z,10.53
2019-02-05T01:39:16.601Z,8.60
2019-02-05T01:44:22.936Z,10.68
2019-02-05T01:49:29.235Z,8.33
2019-02-05T01:54:35.858Z,7.87
2019-02-05T01:59:42.245Z,12.57
2019-02-05T02:04:48.811Z,10.00
2019-02-05T02:09:55.116Z,10.80
2019-02-05T02:15:01.545Z,7.47
2019-02-05T02:20:09.781Z,8.80
2019-02-05T02:25:16.661Z,10.77
2019-02-05T02:30:28.598Z,11.68
2019-02-05T02:35:36.212Z,9.13
2019-02-05T02:40:42.572Z,11.33
2019-02-05T02:45:49.007Z,10.17
2019-02-05T02:50:55.437Z,8.68
2019-02-05T02:56:01.802Z,10.95
2019-02-05T03:01:08.506Z,9.57
2019-02-05T03:06:14.830Z,9.83
2019-02-05T03:11:21.144Z,11.07
2019-02-05T03:16:27.797Z,9.67
2019-02-05T03:21:34.150Z,10.43
2019-02-05T03:26:40.742Z,11.73
2019-02-05T03:31:47.051Z,9.90
2019-02-05T03:36:53.341Z,10.65
2019-02-05T03:41:59.644Z,11.03
2019-02-05T03:47:06.380Z,10.17
2019-02-05T03:52:26.211Z,10.80
2019-02-05T03:58:23.181Z,10.27
2019-02-05T04:03:49.395Z,10.60
2019-02-05T04:09:07.938Z,10.23
2019-02-05T04:15:03.803Z,11.83
2019-02-05T04:21:02.490Z,11.23
2019-02-05T04:26:45.349Z,13.50
2019-02-05T04:32:27.444Z,12.57
2019-02-05T04:38:30.411Z,10.50
2019-02-05T04:44:09.623Z,14.70
2019-02-05T04:49:58.803Z,12.13
2019-02-05T04:55:52.770Z,11.40
2019-02-05T05:01:34.095Z,12.53
2019-02-05T05:07:06.152Z,14.27
2019-02-05T05:12:12.476Z,13.87
2019-02-05T05:17:19.318Z,15.23
2019-02-05T05:22:26.427Z,12.87
2019-02-05T05:27:32.722Z,15.93
2019-02-05T05:32:39.070Z,16.50
2019-02-05T05:37:45.451Z,16.17
2019-02-05T05:42:51.820Z,15.53
2019-02-05T05:47:58.132Z,16.83
2019-02-05T05:53:04.648Z,13.40
2019-02-05T05:58:22.373Z,16.03
2019-02-05T06:03:19.409Z,18.10
2019-02-05T06:08:27.539Z,19.17
2019-02-05T06:13:34.039Z,18.63
2019-02-05T06:18:40.491Z,20.77
2019-02-05T06:23:46.933Z,21.67
2019-02-05T06:28:56.045Z,23.00
2019-02-05T06:34:02.689Z,22.17
2019-02-05T06:39:09.773Z,24.60
2019-02-05T06:44:16.163Z,25.47
2019-02-05T06:49:23.458Z,22.23
2019-02-05T06:54:29.935Z,22.93
2019-02-05T06:59:36.200Z,27.22
2019-02-05T07:04:43.288Z,26.20
2019-02-05T07:09:50.053Z,24.60
2019-02-05T07:14:57.579Z,28.98
2019-02-05T07:20:04.224Z,26.30
2019-02-05T07:25:12.874Z,25.92
2019-02-05T07:30:21.534Z,28.33
2019-02-05T07:35:27.885Z,31.25
2019-02-05T07:40:34.711Z,28.07
2019-02-05T07:45:41.091Z,28.47
2019-02-05T07:50:47.466Z,28.07
2019-02-05T07:55:54.047Z,30.87
2019-02-05T08:01:00.551Z,32.50
2019-02-05T08:06:07.338Z,30.77
2019-02-05T08:11:15.985Z,27.77
2019-02-05T08:16:22.406Z,30.70
2019-02-05T08:21:28.814Z,29.30
2019-02-05T08:26:35.125Z,30.27
2019-02-05T08:31:41.459Z,28.27
2019-02-05T08:36:48.239Z,31.07
2019-02-05T08:41:54.748Z,29.73
2019-02-05T08:47:01.180Z,27.63
2019-02-05T08:52:07.839Z,28.67
2019-02-05T08:57:14.840Z,27.20
2019-02-05T09:02:21.501Z,27.10
2019-02-05T09:07:27.866Z,30.17
2019-02-05T09:12:34.530Z,30.30
2019-02-05T09:17:41.177Z,29.40
2019-02-05T09:22:48.327Z,31.50
2019-02-05T09:27:56.363Z,28.20
2019-02-05T09:33:06.444Z,29.87
2019-02-05T09:38:13.244Z,31.75
2019-02-05T09:43:19.592Z,30.70
2019-02-05T09:48:26.245Z,32.67
2019-02-05T09:53:32.607Z,33.67
2019-02-05T09:58:40.252Z,27.65
2019-02-05T10:03:46.697Z,31.73
2019-02-05T10:08:53.348Z,28.67
2019-02-05T10:13:59.657Z,26.10
2019-02-05T10:19:06.187Z,27.23
2019-02-05T10:24:13.927Z,24.67
2019-02-05T10:29:20.291Z,28.23
2019-02-05T10:34:33.866Z,26.77
2019-02-05T10:39:34.806Z,26.05
2019-02-05T10:44:41.254Z,22.43
2019-02-05T10:49:49.439Z,25.30
2019-02-05T10:54:55.923Z,23.00
2019-02-05T11:00:09.104Z,20.80
2019-02-05T11:05:11.782Z,25.80
2019-02-05T11:10:18.422Z,21.63
2019-02-05T11:15:29.931Z,22.60
2019-02-05T11:20:36.384Z,19.70
2019-02-05T11:25:42.755Z,20.85
2019-02-05T11:30:49.112Z,25.33
2019-02-05T11:35:56.607Z,22.67
2019-02-05T11:41:02.965Z,24.40
2019-02-05T11:46:09.539Z,24.20
2019-02-05T11:51:15.971Z,25.72
2019-02-05T11:56:22.401Z,25.23
2019-02-05T12:01:38.857Z,24.83
2019-02-05T12:06:40.405Z,24.43
2019-02-05T12:11:46.950Z,24.73
2019-02-05T12:16:53.297Z,26.57
2019-02-05T12:21:59.623Z,25.93
2019-02-05T12:27:06.166Z,24.70
2019-02-05T12:32:12.551Z,24.07
2019-02-05T12:37:20.035Z,23.52
2019-02-05T12:42:26.402Z,24.12
2019-02-05T12:47:32.764Z,24.97
2019-02-05T12:52:39.101Z,25.93
2019-02-05T12:57:45.762Z,26.17
2019-02-05T13:02:54.434Z,27.40
2019-02-05T13:08:00.156Z,26.33
2019-02-05T13:13:08.234Z,26.75
2019-02-05T13:18:14.744Z,25.27
2019-02-05T13:23:21.263Z,24.45
2019-02-05T13:28:27.643Z,26.27
2019-02-05T13:33:35.770Z,24.82
2019-02-05T13:38:42.184Z,25.97
2019-02-05T13:43:48.522Z,24.40
2019-02-05T13:48:55.005Z,23.87
2019-02-05T13:54:01.349Z,25.10
2019-02-05T13:59:08.274Z,29.67
2019-02-05T14:04:14.839Z,26.73
2019-02-05T14:09:22.633Z,24.30
2019-02-05T14:14:29.434Z,27.70
2019-02-05T14:19:36.115Z,30.40
2019-02-05T14:24:42.646Z,27.63
2019-02-05T14:29:48.986Z,27.90
2019-02-05T14:34:56.731Z,25.23
2019-02-05T14:40:05.723Z,26.93
2019-02-05T14:45:12.724Z,25.30
2019-02-05T14:50:24.482Z,23.93
2019-02-05T14:55:30.919Z,25.40
2019-02-05T15:00:37.926Z,24.97
2019-02-05T15:05:45.508Z,22.17
2019-02-05T15:10:51.822Z,21.15
2019-02-05T15:15:58.170Z,23.93
2019-02-05T15:21:05.449Z,20.87
2019-02-05T15:26:12.232Z,20.43
2019-02-05T15:31:18.609Z,22.42
2019-02-05T15:36:31.522Z,23.03
2019-02-05T15:41:37.932Z,21.37
2019-02-05T15:46:44.333Z,21.47
2019-02-05T15:51:50.685Z,174.33
2019-02-05T15:56:57.025Z,100.70
2019-02-05T16:02:06.349Z,24.73
2019-02-05T16:07:11.382Z,27.98
2019-02-05T16:12:18.229Z,24.47
2019-02-05T16:17:24.617Z,22.53
2019-02-05T16:22:31.125Z,21.20
2019-02-05T16:27:37.432Z,19.67
2019-02-05T16:32:43.968Z,20.62
2019-02-05T16:37:50.689Z,20.23
2019-02-05T16:42:57.040Z,18.73
2019-02-05T16:48:03.791Z,22.13
2019-02-05T16:53:10.329Z,35.23
2019-02-05T16:58:16.681Z,22.93
2019-02-05T17:03:23.143Z,21.63
2019-02-05T17:08:29.856Z,23.73
2019-02-05T17:13:36.294Z,22.13
2019-02-05T17:18:42.669Z,22.25
2019-02-05T17:23:49.012Z,18.97
2019-02-05T17:28:56.220Z,23.27
2019-02-05T17:34:02.607Z,21.40
2019-02-05T17:39:12.610Z,23.17
2019-02-05T17:44:19.427Z,20.67
2019-02-05T17:49:25.809Z,23.77
2019-02-05T17:54:32.835Z,21.77
2019-02-05T17:59:39.330Z,23.53
2019-02-05T18:04:45.668Z,22.50
2019-02-05T18:09:55.260Z,25.17
2019-02-05T18:15:01.776Z,21.37
2019-02-05T18:20:08.956Z,20.88
2019-02-05T18:25:17.142Z,21.07
2019-02-05T18:30:30.518Z,22.37
2019-02-05T18:35:36.903Z,19.90
2019-02-05T18:40:43.510Z,23.87
2019-02-05T18:45:50.137Z,22.43
2019-02-05T18:50:56.479Z,26.40
2019-02-05T18:56:03.051Z,22.60
2019-02-05T19:01:10.099Z,22.93
2019-02-05T19:06:16.561Z,23.60
2019-02-05T19:11:23.057Z,26.77
2019-02-05T19:16:29.541Z,27.87
2019-02-05T19:21:36.065Z,31.57
2019-02-05T19:26:47.816Z,31.27
2019-02-05T19:31:55.508Z,35.27
2019-02-05T19:37:02.450Z,30.92
2019-02-05T19:42:09.219Z,29.77
2019-02-05T19:47:24.433Z,29.43
2019-02-05T19:52:32.679Z,29.52
2019-02-05T19:57:40.933Z,27.30
2019-02-05T20:02:47.942Z,30.90
2019-02-05T20:07:54.343Z,25.60
2019-02-05T20:13:01.012Z,27.22
2019-02-05T20:18:07.667Z,25.63
2019-02-05T20:23:14.150Z,25.00
2019-02-05T20:28:20.502Z,25.20
2019-02-05T20:33:26.883Z,22.80
2019-02-05T20:38:33.368Z,23.47
2019-02-05T20:43:40.008Z,23.07
2019-02-05T20:48:47.483Z,22.27
2019-02-05T20:53:55.008Z,24.43
2019-02-05T20:59:01.935Z,23.60
2019-02-05T21:04:09.329Z,21.90
2019-02-05T21:09:18.583Z,17.90
2019-02-05T21:14:25.094Z,16.57
2019-02-05T21:19:31.564Z,14.50
2019-02-05T21:24:38.025Z,13.10
2019-02-05T21:29:44.612Z,12.00
2019-02-05T21:34:51.350Z,13.63
2019-02-05T21:40:02.372Z,14.73
2019-02-05T21:45:08.328Z,12.03
2019-02-05T21:50:17.728Z,11.03
2019-02-05T21:55:24.994Z,11.20
2019-02-05T22:00:33.406Z,12.17
2019-02-05T22:05:39.693Z,10.60
2019-02-05T22:10:47.912Z,10.27
2019-02-05T22:15:54.553Z,11.00
2019-02-05T22:21:00.984Z,8.13
2019-02-05T22:26:07.629Z,9.58
2019-02-05T22:31:14.297Z,8.90
2019-02-05T22:36:20.707Z,8.53
2019-02-05T22:41:27.299Z,9.23
2019-02-05T22:46:33.653Z,7.57
2019-02-05T22:51:40.313Z,7.93
2019-02-05T22:56:46.775Z,11.12
2019-02-05T23:01:58.996Z,8.53
2019-02-05T23:07:12.956Z,9.45
2019-02-05T23:12:35.583Z,8.80
2019-02-05T23:17:41.930Z,8.60
2019-02-05T23:22:48.192Z,9.10
2019-02-05T23:27:54.794Z,10.08
2019-02-05T23:33:01.102Z,10.63
2019-02-05T23:38:08.086Z,10.50
2019-02-05T23:43:14.416Z,11.10
2019-02-05T23:48:20.912Z,9.93
2019-02-05T23:53:27.231Z,9.10
2019-02-05T23:58:33.798Z,9.67
